Time;durP1;ratioP1;P1;durP2;ratioP2;P2;SDS_P1;SDS_P2;PMS_P1;PMS_P2;Temp;Humidity;BMP_temperature;BMP_pressure;BME280_temperature;BME280_humidity;BME280_pressure;Samples;Min_cycle;Max_cycle;Signal;HPM_P1;HPM_P2
2023/10/04 00:01:15;;;;;;;4.33;0.70;;;;;;;;;;5076517;28;20938;-84
2023/10/04 00:03:42;;;;;;;4.10;0.77;;;;;;;;;;5076532;28;20398;-80
2023/10/04 00:06:09;;;;;;;3.07;1.00;;;;;;;;;;5076469;28;20422;-84
2023/10/04 00:08:35;;;;;;;9.07;1.07;;;;;;;;;;5076632;28;20404;-80
2023/10/04 00:11:01;;;;;;;5.57;0.87;;;;;;;;;;5076472;28;20426;-81
2023/10/04 00:13:28;;;;;;;5.10;1.00;;;;;;;;;;5076611;28;20415;-81
2023/10/04 00:15:54;;;;;;;4.20;1.00;;;;;;;;;;5076025;28;20505;-82
2023/10/04 00:18:19;;;;;;;4.10;1.50;;;;;;;;;;5076212;28;20438;-81
2023/10/04 00:20:45;;;;;;;5.23;1.10;;;;;;;;;;5076311;28;20443;-81
2023/10/04 00:23:13;;;;;;;4.60;0.77;;;;;;;;;;5076169;28;20476;-82
2023/10/04 00:25:39;;;;;;;5.70;0.90;;;;;;;;;;5058233;28;20477;-81
2023/10/04 00:28:05;;;;;;;4.67;0.93;;;;;;;;;;5076053;28;20432;-84
2023/10/04 00:30:31;;;;;;;6.07;0.80;;;;;;;;;;5057796;28;20837;-82
2023/10/04 00:32:58;;;;;;;8.23;1.17;;;;;;;;;;5076244;28;20446;-80
2023/10/04 00:35:25;;;;;;;4.57;1.10;;;;;;;;;;5075853;28;20415;-85
2023/10/04 00:38:00;;;;;;;4.73;0.83;;;;;;;;;;5076042;28;20408;-81
2023/10/04 00:40:27;;;;;;;5.87;0.67;;;;;;;;;;5075973;28;20407;-82
2023/10/04 00:42:55;;;;;;;4.50;0.80;;;;;;;;;;5076006;28;20407;-82
2023/10/04 00:45:22;;;;;;;4.30;0.60;;;;;;;;;;5075435;28;20980;-80
2023/10/04 00:47:53;;;;;;;6.43;1.30;;;;;;;;;;5075528;28;20473;-80
2023/10/04 00:50:26;;;;;;;3.00;0.73;;;;;;;;;;5075701;28;20416;-85
2023/10/04 00:52:57;;;;;;;4.27;0.30;;;;;;;;;;5075955;28;20446;-82
2023/10/04 00:55:23;;;;;;;8.07;1.60;;;;;;;;;;5075422;28;20421;-87
2023/10/04 00:57:56;;;;;;;4.80;0.50;;;;;;;;;;5075554;28;20501;-79
2023/10/04 01:00:23;;;;;;;5.83;1.07;;;;;;;;;;5075236;28;20455;-81
2023/10/04 01:02:49;;;;;;;4.67;0.97;;;;;;;;;;5075444;28;20493;-85
2023/10/04 01:05:16;;;;;;;5.03;0.83;;;;;;;;;;5074199;28;20567;-83
2023/10/04 01:07:42;;;;;;;5.73;1.10;;;;;;;;;;5075223;28;20417;-80
2023/10/04 01:10:15;;;;;;;5.07;0.70;;;;;;;;;;5075269;28;20496;-82
2023/10/04 01:12:44;;;;;;;9.63;1.50;;;;;;;;;;5075399;28;20396;-79
2023/10/04 01:18:02;;;;;;;6.10;1.07;;;;;;;;;;5075233;28;20414;-85
2023/10/04 01:20:29;;;;;;;7.97;1.37;;;;;;;;;;5075183;28;20735;-81
2023/10/04 01:23:00;;;;;;;2.73;0.60;;;;;;;;;;5051375;28;20628;-81
2023/10/04 01:25:26;;;;;;;2.20;0.53;;;;;;;;;;5058928;28;20482;-79
2023/10/04 01:27:55;;;;;;;4.10;0.40;;;;;;;;;;5071726;28;20829;-81
2023/10/04 01:30:21;;;;;;;6.93;0.87;;;;;;;;;;5061192;28;20439;-83
2023/10/04 01:32:50;;;;;;;3.80;1.03;;;;;;;;;;5075219;28;20906;-81
2023/10/04 01:35:18;;;;;;;2.73;0.87;;;;;;;;;;5075013;28;20631;-85
2023/10/04 01:37:45;;;;;;;6.03;0.73;;;;;;;;;;5074947;28;20899;-81
2023/10/04 01:40:14;;;;;;;6.63;1.27;;;;;;;;;;5074876;28;20827;-82
2023/10/04 01:42:40;;;;;;;4.33;0.83;;;;;;;;;;5075009;28;20755;-82
2023/10/04 01:45:10;;;;;;;5.20;0.57;;;;;;;;;;5057096;28;20471;-83
2023/10/04 01:47:36;;;;;;;2.27;0.70;;;;;;;;;;5074593;28;20447;-85
2023/10/04 01:50:03;;;;;;;7.70;1.30;;;;;;;;;;5074588;28;20464;-87
2023/10/04 01:52:30;;;;;;;2.53;0.90;;;;;;;;;;5074440;28;20407;-81
2023/10/04 01:54:56;;;;;;;4.57;1.10;;;;;;;;;;5074819;28;20510;-83
2023/10/04 01:57:22;;;;;;;2.30;0.63;;;;;;;;;;5074414;28;20496;-80
2023/10/04 01:59:48;;;;;;;4.67;1.10;;;;;;;;;;5074109;28;20827;-80
2023/10/04 02:02:14;;;;;;;3.57;0.70;;;;;;;;;;5074293;28;20731;-83
2023/10/04 02:04:40;;;;;;;2.67;0.90;;;;;;;;;;5074352;28;21075;-81
2023/10/04 02:07:07;;;;;;;4.90;1.20;;;;;;;;;;5074214;28;20415;-86
2023/10/04 02:09:33;;;;;;;7.63;1.20;;;;;;;;;;5074232;28;20465;-80
2023/10/04 02:12:01;;;;;;;6.20;1.57;;;;;;;;;;5074426;28;20410;-80
2023/10/04 02:14:27;;;;;;;6.40;1.47;;;;;;;;;;5074118;28;20656;-81
2023/10/04 02:16:53;;;;;;;4.97;1.33;;;;;;;;;;5063681;28;20424;-80
2023/10/04 02:19:24;;;;;;;4.23;0.80;;;;;;;;;;5043428;28;20458;-79
2023/10/04 02:21:50;;;;;;;3.90;1.63;;;;;;;;;;5056311;28;21002;-80
2023/10/04 02:24:16;;;;;;;5.80;0.90;;;;;;;;;;5073701;28;20485;-82
2023/10/04 02:26:42;;;;;;;6.40;1.30;;;;;;;;;;5061872;28;20435;-80
2023/10/04 02:29:09;;;;;;;6.23;0.87;;;;;;;;;;5059520;28;20417;-80
2023/10/04 02:31:36;;;;;;;4.67;0.87;;;;;;;;;;5066790;28;20184;-80
2023/10/04 02:34:05;;;;;;;4.67;1.77;;;;;;;;;;5053987;28;20408;-80
2023/10/04 02:36:31;;;;;;;5.63;1.17;;;;;;;;;;5055150;28;20429;-80
2023/10/04 02:38:57;;;;;;;4.50;1.00;;;;;;;;;;5073559;28;20459;-79
2023/10/04 02:41:26;;;;;;;6.57;1.23;;;;;;;;;;5057749;28;20470;-80
2023/10/04 02:43:54;;;;;;;6.43;1.30;;;;;;;;;;5060508;28;20511;-87
2023/10/04 02:46:20;;;;;;;7.87;1.70;;;;;;;;;;5052531;28;20429;-85
2023/10/04 02:48:47;;;;;;;6.47;1.77;;;;;;;;;;5052924;28;20473;-81
2023/10/04 02:51:13;;;;;;;5.63;0.93;;;;;;;;;;5052961;28;20499;-80
2023/10/04 02:53:41;;;;;;;6.27;1.90;;;;;;;;;;5053094;28;20416;-79
2023/10/04 02:56:08;;;;;;;5.60;1.00;;;;;;;;;;5053113;28;20411;-80
2023/10/04 02:58:36;;;;;;;7.43;1.33;;;;;;;;;;5034484;28;20431;-82
2023/10/04 03:01:02;;;;;;;5.83;0.87;;;;;;;;;;5052078;28;20411;-80
2023/10/04 03:03:30;;;;;;;7.77;1.60;;;;;;;;;;5052261;28;20430;-83
2023/10/04 03:05:56;;;;;;;6.10;1.87;;;;;;;;;;5052965;28;20459;-79
2023/10/04 03:08:23;;;;;;;4.47;1.20;;;;;;;;;;5053270;28;20414;-81
2023/10/04 03:10:55;;;;;;;5.37;1.20;;;;;;;;;;5053299;28;20408;-80
2023/10/04 03:13:27;;;;;;;7.60;1.60;;;;;;;;;;5035279;28;20420;-81
2023/10/04 03:15:54;;;;;;;10.57;1.40;;;;;;;;;;5052880;28;20419;-81
2023/10/04 03:18:25;;;;;;;9.40;0.93;;;;;;;;;;5053028;28;20460;-83
2023/10/04 03:21:00;;;;;;;11.27;1.97;;;;;;;;;;5053121;28;20423;-81
2023/10/04 03:23:29;;;;;;;7.03;1.40;;;;;;;;;;5035133;28;20422;-81
2023/10/04 03:26:00;;;;;;;10.17;2.20;;;;;;;;;;5035080;28;20436;-79
2023/10/04 03:28:26;;;;;;;4.60;1.10;;;;;;;;;;5052204;28;20397;-85
2023/10/04 03:31:03;;;;;;;6.37;1.30;;;;;;;;;;5052728;28;20408;-79
2023/10/04 03:33:31;;;;;;;6.90;1.20;;;;;;;;;;5052898;28;20399;-80
2023/10/04 03:35:58;;;;;;;4.43;0.97;;;;;;;;;;5053142;28;20935;-81
2023/10/04 03:38:25;;;;;;;6.50;0.90;;;;;;;;;;5052699;28;21042;-85
2023/10/04 03:40:55;;;;;;;7.30;1.13;;;;;;;;;;5052821;28;20404;-86
2023/10/04 03:43:21;;;;;;;6.63;1.30;;;;;;;;;;5035168;28;21072;-86
2023/10/04 03:45:47;;;;;;;8.50;1.43;;;;;;;;;;5052384;28;21038;-86
2023/10/04 03:48:16;;;;;;;7.37;1.33;;;;;;;;;;5049718;28;20567;-79
2023/10/04 03:50:52;;;;;;;9.57;0.97;;;;;;;;;;5052804;28;20798;-87
2023/10/04 03:53:21;;;;;;;5.93;0.83;;;;;;;;;;5052768;28;20402;-80
2023/10/04 03:55:48;;;;;;;7.13;1.10;;;;;;;;;;5052873;28;20794;-81
2023/10/04 03:58:20;;;;;;;6.30;0.97;;;;;;;;;;5051373;28;20478;-85
2023/10/04 04:00:46;;;;;;;3.90;0.83;;;;;;;;;;5052350;28;20412;-81
2023/10/04 04:03:12;;;;;;;4.23;0.60;;;;;;;;;;5052667;28;20422;-81
2023/10/04 04:05:41;;;;;;;6.37;0.73;;;;;;;;;;5052669;28;20544;-82
2023/10/04 04:08:07;;;;;;;6.50;1.03;;;;;;;;;;5051316;28;20407;-81
2023/10/04 04:10:36;;;;;;;4.40;0.80;;;;;;;;;;5052598;28;20916;-81
2023/10/04 04:13:03;;;;;;;6.13;1.33;;;;;;;;;;5052513;28;20813;-80
2023/10/04 04:15:33;;;;;;;4.83;0.60;;;;;;;;;;5052231;28;20525;-79
2023/10/04 04:17:59;;;;;;;8.33;1.27;;;;;;;;;;5052379;28;20487;-81
2023/10/04 04:20:26;;;;;;;6.10;1.00;;;;;;;;;;5052380;28;20444;-80
2023/10/04 04:22:55;;;;;;;11.00;1.37;;;;;;;;;;5051121;28;20433;-80
2023/10/04 04:25:21;;;;;;;7.00;0.57;;;;;;;;;;5052379;28;20960;-80
2023/10/04 04:27:49;;;;;;;5.00;0.70;;;;;;;;;;5051133;28;20832;-79
2023/10/04 04:30:19;;;;;;;7.20;1.37;;;;;;;;;;5051998;28;20411;-80
2023/10/04 04:32:47;;;;;;;4.80;1.07;;;;;;;;;;5052310;28;20775;-81
2023/10/04 04:35:22;;;;;;;7.17;1.30;;;;;;;;;;5052335;28;20449;-79
2023/10/04 04:37:54;;;;;;;7.50;1.77;;;;;;;;;;5052347;28;20952;-78
2023/10/04 04:40:24;;;;;;;7.73;1.23;;;;;;;;;;5054379;28;20772;-79
2023/10/04 04:43:01;;;;;;;6.27;1.60;;;;;;;;;;5055827;28;20470;-79
2023/10/04 04:45:27;;;;;;;3.33;0.73;;;;;;;;;;5054220;28;20998;-79
2023/10/04 04:47:55;;;;;;;7.77;1.53;;;;;;;;;;5055521;28;20462;-79
2023/10/04 04:50:23;;;;;;;6.50;1.90;;;;;;;;;;5037790;28;20422;-78
2023/10/04 04:52:52;;;;;;;5.37;1.13;;;;;;;;;;5055686;28;20406;-78
2023/10/04 04:55:18;;;;;;;4.57;1.10;;;;;;;;;;5055629;28;20887;-79
2023/10/04 04:57:44;;;;;;;3.17;1.00;;;;;;;;;;5055585;28;20494;-79
2023/10/04 05:02:55;;;;;;;6.87;1.13;;;;;;;;;;5055509;28;20445;-78
2023/10/04 05:05:21;;;;;;;8.00;1.80;;;;;;;;;;5055257;28;20469;-79
2023/10/04 05:07:48;;;;;;;4.30;0.80;;;;;;;;;;5055267;28;20397;-79
2023/10/04 05:10:17;;;;;;;9.47;1.87;;;;;;;;;;5055177;28;20499;-78
2023/10/04 05:12:46;;;;;;;4.47;1.00;;;;;;;;;;5055272;28;20521;-77
2023/10/04 05:15:22;;;;;;;5.93;0.77;;;;;;;;;;5054910;28;20427;-77
2023/10/04 05:17:51;;;;;;;6.90;1.83;;;;;;;;;;5055228;28;20419;-79
2023/10/04 05:20:21;;;;;;;6.27;1.17;;;;;;;;;;5054812;28;20515;-77
2023/10/04 05:22:52;;;;;;;6.67;1.50;;;;;;;;;;5054213;28;20776;-79
2023/10/04 05:25:20;;;;;;;8.87;1.23;;;;;;;;;;5054918;28;20461;-78
2023/10/04 05:27:46;;;;;;;10.57;1.50;;;;;;;;;;5055098;28;20819;-77
2023/10/04 05:30:19;;;;;;;9.10;1.23;;;;;;;;;;5054682;28;20410;-77
2023/10/04 05:32:47;;;;;;;8.50;1.33;;;;;;;;;;5055135;28;20493;-77
2023/10/04 05:35:14;;;;;;;6.43;1.73;;;;;;;;;;5054907;28;20444;-77
2023/10/04 05:37:41;;;;;;;8.80;1.53;;;;;;;;;;5054914;28;20757;-77
2023/10/04 05:40:16;;;;;;;4.17;0.70;;;;;;;;;;5037004;28;20445;-77
2023/10/04 05:42:45;;;;;;;5.90;1.73;;;;;;;;;;5054723;28;20402;-76
2023/10/04 05:45:12;;;;;;;8.57;1.43;;;;;;;;;;5054216;28;20564;-77
2023/10/04 05:47:38;;;;;;;6.40;0.97;;;;;;;;;;5054485;28;20468;-77
2023/10/04 05:50:05;;;;;;;9.00;1.50;;;;;;;;;;5054566;28;20422;-77
2023/10/04 05:52:32;;;;;;;7.20;1.07;;;;;;;;;;5035951;28;20423;-77
2023/10/04 05:54:59;;;;;;;6.33;1.20;;;;;;;;;;5054482;28;20975;-78
2023/10/04 05:57:25;;;;;;;10.07;1.43;;;;;;;;;;5054441;28;20411;-76
2023/10/04 05:59:51;;;;;;;8.13;1.00;;;;;;;;;;5054066;28;20427;-77
2023/10/04 06:02:17;;;;;;;8.93;1.20;;;;;;;;;;5036402;28;20427;-78
2023/10/04 06:04:47;;;;;;;9.00;1.40;;;;;;;;;;5054216;28;20476;-75
2023/10/04 06:07:13;;;;;;;5.23;1.07;;;;;;;;;;5054231;28;20758;-76
2023/10/04 06:09:42;;;;;;;8.67;1.70;;;;;;;;;;5054186;28;20419;-76
2023/10/04 06:12:11;;;;;;;6.23;1.70;;;;;;;;;;5054131;28;20836;-76
2023/10/04 06:14:37;;;;;;;6.10;0.70;;;;;;;;;;5053753;28;20413;-77
2023/10/04 06:17:06;;;;;;;9.17;1.07;;;;;;;;;;5036208;28;20430;-76
2023/10/04 06:19:32;;;;;;;6.90;0.97;;;;;;;;;;5054018;28;20452;-77
2023/10/04 06:21:58;;;;;;;7.60;1.53;;;;;;;;;;5053832;28;20502;-77
2023/10/04 06:24:24;;;;;;;4.43;0.87;;;;;;;;;;5053770;28;20512;-78
2023/10/04 06:26:50;;;;;;;6.03;1.20;;;;;;;;;;5053749;28;20483;-77
2023/10/04 06:29:16;;;;;;;8.80;1.23;;;;;;;;;;5035935;28;20922;-76
2023/10/04 06:31:45;;;;;;;6.47;1.07;;;;;;;;;;5053836;28;20443;-77
2023/10/04 06:34:11;;;;;;;8.27;1.17;;;;;;;;;;5035644;28;20924;-76
2023/10/04 06:36:37;;;;;;;9.57;1.37;;;;;;;;;;5053737;28;20769;-77
2023/10/04 06:39:03;;;;;;;10.30;1.20;;;;;;;;;;5035770;28;20471;-76
2023/10/04 06:41:29;;;;;;;4.33;0.90;;;;;;;;;;5053622;28;20186;-76
2023/10/04 06:43:56;;;;;;;5.73;1.13;;;;;;;;;;5053278;28;20419;-77
2023/10/04 06:46:22;;;;;;;4.47;0.70;;;;;;;;;;5053395;28;20262;-76
2023/10/04 06:48:48;;;;;;;3.53;1.23;;;;;;;;;;5053589;28;20901;-77
2023/10/04 06:51:14;;;;;;;5.10;0.57;;;;;;;;;;5053448;28;20502;-77
2023/10/04 06:53:43;;;;;;;6.97;0.70;;;;;;;;;;5053541;28;20577;-77
2023/10/04 06:56:09;;;;;;;6.50;1.23;;;;;;;;;;5053434;28;20422;-76
2023/10/04 06:58:35;;;;;;;7.00;1.30;;;;;;;;;;5053350;28;20417;-76
2023/10/04 07:01:01;;;;;;;8.27;1.00;;;;;;;;;;5052907;28;20779;-77
2023/10/04 07:03:29;;;;;;;10.07;1.40;;;;;;;;;;5053205;28;20414;-77
2023/10/04 07:05:55;;;;;;;6.50;1.30;;;;;;;;;;5053161;28;20210;-77
2023/10/04 07:08:20;;;;;;;6.00;0.90;;;;;;;;;;5053129;28;20407;-78
2023/10/04 07:10:47;;;;;;;7.13;1.60;;;;;;;;;;5053311;28;20415;-77
2023/10/04 07:13:13;;;;;;;5.63;0.70;;;;;;;;;;5053336;28;20173;-76
2023/10/04 07:15:43;;;;;;;6.37;1.30;;;;;;;;;;5052709;28;20469;-76
2023/10/04 07:18:10;;;;;;;5.73;1.43;;;;;;;;;;5035368;28;20912;-77
2023/10/04 07:20:36;;;;;;;7.20;1.33;;;;;;;;;;5053171;28;20493;-76
2023/10/04 07:23:07;;;;;;;6.33;1.43;;;;;;;;;;5053487;28;20417;-77
2023/10/04 07:25:34;;;;;;;8.73;0.73;;;;;;;;;;5053071;28;20466;-77
2023/10/04 07:28:01;;;;;;;7.00;1.00;;;;;;;;;;5052962;28;20422;-77
2023/10/04 07:30:28;;;;;;;5.70;0.90;;;;;;;;;;5052662;28;20525;-77
2023/10/04 07:32:53;;;;;;;9.27;1.50;;;;;;;;;;5035423;28;20562;-76
2023/10/04 07:35:23;;;;;;;7.17;1.90;;;;;;;;;;5052970;28;21082;-76
2023/10/04 07:37:49;;;;;;;4.33;0.90;;;;;;;;;;5052824;28;20397;-80
2023/10/04 07:40:16;;;;;;;9.43;1.50;;;;;;;;;;5052939;28;20419;-77
2023/10/04 07:42:45;;;;;;;8.53;1.30;;;;;;;;;;5052766;28;20405;-75
2023/10/04 07:45:12;;;;;;;9.43;1.10;;;;;;;;;;5052376;28;20516;-74
2023/10/04 07:47:40;;;;;;;5.73;0.97;;;;;;;;;;5044567;28;21026;-74
2023/10/04 07:50:09;;;;;;;6.43;1.20;;;;;;;;;;5052728;28;20422;-74
2023/10/04 07:52:36;;;;;;;8.83;1.57;;;;;;;;;;5052812;28;20394;-77
2023/10/04 07:55:05;;;;;;;4.30;0.67;;;;;;;;;;5051563;28;20417;-78
2023/10/04 07:57:31;;;;;;;4.27;1.13;;;;;;;;;;5052777;28;20462;-76
2023/10/04 07:59:57;;;;;;;7.10;2.50;;;;;;;;;;5052415;28;20416;-79
2023/10/04 08:02:23;;;;;;;6.07;1.20;;;;;;;;;;5052681;28;20415;-77
2023/10/04 08:04:49;;;;;;;6.83;1.50;;;;;;;;;;5052598;28;20473;-89
2023/10/04 08:07:18;;;;;;;7.73;1.23;;;;;;;;;;5051536;28;20404;-89
2023/10/04 08:09:44;;;;;;;7.90;1.40;;;;;;;;;;5052698;28;20418;-77
2023/10/04 08:12:10;;;;;;;6.40;1.23;;;;;;;;;;5052538;28;20890;-77
2023/10/04 08:14:36;;;;;;;7.30;1.17;;;;;;;;;;5052193;28;20218;-77
2023/10/04 08:17:02;;;;;;;3.50;1.00;;;;;;;;;;5056472;28;20494;-78
2023/10/04 08:19:28;;;;;;;5.40;0.80;;;;;;;;;;5056377;28;20420;-78
2023/10/04 08:21:54;;;;;;;5.30;1.00;;;;;;;;;;5056308;28;20504;-77
2023/10/04 08:24:20;;;;;;;6.50;1.03;;;;;;;;;;5056276;28;20550;-77
2023/10/04 08:26:48;;;;;;;7.60;1.90;;;;;;;;;;5054876;28;20472;-77
2023/10/04 08:29:14;;;;;;;7.43;1.70;;;;;;;;;;5055848;28;20905;-78
2023/10/04 08:31:40;;;;;;;8.33;1.80;;;;;;;;;;5054894;28;20429;-77
2023/10/04 08:34:06;;;;;;;10.23;1.27;;;;;;;;;;5056148;28;20417;-77
2023/10/04 08:36:33;;;;;;;6.47;0.93;;;;;;;;;;5056083;28;20560;-76
2023/10/04 08:39:00;;;;;;;9.23;1.80;;;;;;;;;;5056055;28;20173;-80
2023/10/04 08:41:26;;;;;;;4.60;1.13;;;;;;;;;;5056000;28;20412;-77
2023/10/04 08:43:52;;;;;;;5.50;1.10;;;;;;;;;;5054161;28;20419;-77
2023/10/04 08:46:19;;;;;;;6.07;1.23;;;;;;;;;;5055784;28;20541;-80
2023/10/04 08:48:44;;;;;;;7.00;1.17;;;;;;;;;;5055887;28;20169;-77
2023/10/04 08:51:16;;;;;;;6.17;1.13;;;;;;;;;;5055776;28;20777;-77
2023/10/04 08:53:56;;;;;;;4.70;1.27;;;;;;;;;;5055774;28;20638;-79
2023/10/04 08:56:23;;;;;;;6.47;1.33;;;;;;;;;;5055721;28;20502;-77
2023/10/04 08:58:50;;;;;;;6.13;1.53;;;;;;;;;;5037396;28;20812;-77
2023/10/04 09:01:16;;;;;;;5.57;1.03;;;;;;;;;;5055594;28;20403;-76
2023/10/04 09:03:43;;;;;;;3.23;1.23;;;;;;;;;;5055379;28;20414;-76
2023/10/04 09:06:10;;;;;;;4.73;1.00;;;;;;;;;;5055484;28;20503;-75
2023/10/04 09:08:38;;;;;;;3.30;0.80;;;;;;;;;;5055411;28;20420;-75
2023/10/04 09:11:10;;;;;;;7.87;1.30;;;;;;;;;;5055749;28;20516;-75
2023/10/04 09:13:42;;;;;;;6.73;1.50;;;;;;;;;;5055049;28;20420;-76
2023/10/04 09:16:18;;;;;;;5.97;1.60;;;;;;;;;;5055573;28;20404;-77
2023/10/04 09:18:44;;;;;;;5.53;1.20;;;;;;;;;;5055278;28;20402;-77
2023/10/04 09:21:22;;;;;;;5.40;0.80;;;;;;;;;;5055437;28;20473;-77
2023/10/04 09:24:09;;;;;;;5.90;1.20;;;;;;;;;;5055140;28;20401;-77
2023/10/04 09:26:36;;;;;;;7.63;1.40;;;;;;;;;;5054044;28;20402;-78
2023/10/04 09:29:02;;;;;;;6.57;1.33;;;;;;;;;;5054809;28;20474;-75
2023/10/04 09:31:31;;;;;;;8.33;1.60;;;;;;;;;;5055015;28;20415;-80
2023/10/04 09:34:13;;;;;;;6.17;1.37;;;;;;;;;;5055071;28;20924;-75
2023/10/04 09:36:40;;;;;;;9.70;1.50;;;;;;;;;;5055137;28;20447;-75
2023/10/04 09:39:16;;;;;;;5.50;0.90;;;;;;;;;;5054965;28;20783;-79
2023/10/04 09:41:43;;;;;;;7.30;1.87;;;;;;;;;;5037187;28;20415;-87
2023/10/04 09:44:29;;;;;;;3.83;1.47;;;;;;;;;;5054430;28;20495;-75
2023/10/04 09:47:02;;;;;;;5.90;1.33;;;;;;;;;;5054690;28;20464;-76
2023/10/04 09:49:31;;;;;;;10.10;1.30;;;;;;;;;;5036930;28;20454;-74
2023/10/04 09:51:58;;;;;;;7.93;1.23;;;;;;;;;;5054530;28;20408;-74
2023/10/04 09:54:24;;;;;;;6.00;1.00;;;;;;;;;;5054814;28;20404;-76
2023/10/04 09:56:52;;;;;;;8.10;2.33;;;;;;;;;;5054616;28;20407;-77
2023/10/04 09:59:29;;;;;;;5.80;1.27;;;;;;;;;;5054284;28;20404;-75
2023/10/04 10:02:02;;;;;;;6.17;1.37;;;;;;;;;;5054641;28;20493;-76
2023/10/04 10:04:29;;;;;;;5.40;1.10;;;;;;;;;;5054462;28;20459;-82
2023/10/04 10:07:09;;;;;;;6.73;1.43;;;;;;;;;;5054536;28;20779;-77
2023/10/04 10:09:36;;;;;;;8.57;1.37;;;;;;;;;;5054612;28;20432;-92
2023/10/04 10:12:02;;;;;;;7.13;1.83;;;;;;;;;;5054253;28;20941;-78
2023/10/04 10:14:29;;;;;;;10.40;1.47;;;;;;;;;;5053974;28;20401;-78
2023/10/04 10:16:55;;;;;;;6.00;1.10;;;;;;;;;;5055219;28;20421;-77
2023/10/04 10:19:24;;;;;;;6.93;1.50;;;;;;;;;;5054199;28;20432;-78
2023/10/04 10:22:05;;;;;;;8.70;1.90;;;;;;;;;;5036285;28;20511;-94
2023/10/04 10:24:31;;;;;;;5.23;1.30;;;;;;;;;;5054007;28;20494;-76
2023/10/04 10:27:09;;;;;;;8.33;2.30;;;;;;;;;;5054567;28;20399;-78
2023/10/04 10:29:36;;;;;;;7.50;2.60;;;;;;;;;;5053637;28;20776;-77
2023/10/04 10:32:06;;;;;;;7.50;2.17;;;;;;;;;;5054180;28;20787;-84
2023/10/04 10:34:32;;;;;;;7.07;1.63;;;;;;;;;;5054030;28;20407;-77
2023/10/04 10:37:15;;;;;;;6.37;1.33;;;;;;;;;;5053799;28;20895;-78
2023/10/04 10:39:45;;;;;;;4.13;1.27;;;;;;;;;;5053937;28;20966;-82
2023/10/04 10:42:11;;;;;;;4.60;1.17;;;;;;;;;;5053830;28;20420;-78
2023/10/04 10:44:39;;;;;;;6.57;1.53;;;;;;;;;;5053388;28;20502;-79
2023/10/04 10:47:18;;;;;;;3.73;1.80;;;;;;;;;;5039505;28;20490;-77
2023/10/04 10:50:12;;;;;;;5.00;1.60;;;;;;;;;;5053713;28;20463;-77
2023/10/04 10:52:38;;;;;;;7.20;1.80;;;;;;;;;;5053722;28;20415;-77
2023/10/04 10:55:05;;;;;;;9.67;2.70;;;;;;;;;;5053620;28;20417;-77
2023/10/04 10:57:32;;;;;;;7.93;1.70;;;;;;;;;;5052383;28;20819;-91
2023/10/04 11:00:05;;;;;;;8.43;2.13;;;;;;;;;;5053366;28;20522;-88
2023/10/04 11:02:33;;;;;;;8.50;1.90;;;;;;;;;;5053499;28;20415;-80
2023/10/04 11:05:02;;;;;;;8.60;1.70;;;;;;;;;;5053415;28;20499;-85
2023/10/04 11:07:28;;;;;;;10.20;2.20;;;;;;;;;;5053039;28;20439;-77
2023/10/04 11:09:55;;;;;;;7.50;1.30;;;;;;;;;;5051940;28;20455;-90
2023/10/04 11:12:21;;;;;;;7.57;2.47;;;;;;;;;;5053273;28;20499;-86
2023/10/04 11:14:47;;;;;;;8.10;1.80;;;;;;;;;;5051612;28;20432;-77
2023/10/04 11:17:16;;;;;;;5.00;1.57;;;;;;;;;;5051895;28;20824;-80
2023/10/04 11:19:43;;;;;;;6.00;2.03;;;;;;;;;;5052982;28;20416;-78
2023/10/04 11:22:11;;;;;;;7.23;1.87;;;;;;;;;;5053069;28;20400;-77
2023/10/04 11:24:37;;;;;;;4.77;1.50;;;;;;;;;;5052190;28;20553;-78
2023/10/04 11:27:04;;;;;;;8.23;2.00;;;;;;;;;;5052295;28;20447;-78
2023/10/04 11:29:30;;;;;;;11.73;1.87;;;;;;;;;;5052012;28;20920;-78
2023/10/04 11:31:58;;;;;;;7.03;2.10;;;;;;;;;;5032971;28;20413;-78
2023/10/04 11:34:26;;;;;;;7.47;1.40;;;;;;;;;;5040035;28;20433;-76
2023/10/04 11:36:57;;;;;;;6.53;2.40;;;;;;;;;;5052986;28;20409;-76
2023/10/04 11:39:23;;;;;;;7.87;2.30;;;;;;;;;;5053283;28;20410;-91
2023/10/04 11:41:51;;;;;;;9.33;2.63;;;;;;;;;;5052871;28;20419;-76
2023/10/04 11:44:18;;;;;;;10.60;3.73;;;;;;;;;;5052522;28;20462;-79
2023/10/04 11:46:59;;;;;;;6.07;2.23;;;;;;;;;;5052860;28;20452;-76
2023/10/04 11:49:28;;;;;;;9.00;2.80;;;;;;;;;;5054072;28;20395;-90
2023/10/04 11:51:55;;;;;;;7.13;2.43;;;;;;;;;;5057269;28;20408;-91
2023/10/04 11:54:23;;;;;;;10.90;3.30;;;;;;;;;;5057025;28;20443;-88
2023/10/04 11:56:49;;;;;;;7.60;2.80;;;;;;;;;;5057141;28;20404;-91
2023/10/04 11:59:15;;;;;;;8.70;2.50;;;;;;;;;;5038834;28;20424;-90
2023/10/04 12:01:44;;;;;;;5.03;2.10;;;;;;;;;;5057039;28;20502;-78
2023/10/04 12:04:11;;;;;;;7.40;2.57;;;;;;;;;;5040228;28;20463;-76
2023/10/04 12:06:37;;;;;;;8.23;3.20;;;;;;;;;;5056629;28;20413;-78
2023/10/04 12:09:06;;;;;;;8.43;2.53;;;;;;;;;;5056726;28;20404;-80
2023/10/04 12:11:35;;;;;;;7.23;2.63;;;;;;;;;;5056780;28;20417;-78
2023/10/04 12:14:01;;;;;;;6.53;1.90;;;;;;;;;;5056446;28;20440;-78
2023/10/04 12:16:28;;;;;;;6.00;2.73;;;;;;;;;;5056676;28;20819;-78
2023/10/04 12:18:54;;;;;;;5.17;1.83;;;;;;;;;;5056819;28;20935;-90
2023/10/04 12:21:20;;;;;;;8.00;2.90;;;;;;;;;;5056583;28;20462;-90
2023/10/04 12:23:46;;;;;;;8.27;2.50;;;;;;;;;;5038618;28;20834;-77
2023/10/04 12:26:11;;;;;;;7.10;2.73;;;;;;;;;;5056374;28;21101;-86
2023/10/04 12:28:38;;;;;;;10.83;2.90;;;;;;;;;;5055961;28;20173;-79
2023/10/04 12:31:07;;;;;;;6.70;2.27;;;;;;;;;;5056313;28;20414;-88
2023/10/04 12:33:38;;;;;;;7.57;3.17;;;;;;;;;;5070418;28;20506;-91
2023/10/04 12:36:07;;;;;;;7.10;2.53;;;;;;;;;;5076452;28;20417;-80
2023/10/04 12:38:34;;;;;;;8.60;2.63;;;;;;;;;;5058302;28;20476;-85
2023/10/04 12:41:00;;;;;;;6.33;2.83;;;;;;;;;;5058422;28;20477;-80
2023/10/04 12:43:25;;;;;;;6.40;2.67;;;;;;;;;;5075653;28;20415;-89
2023/10/04 12:45:53;;;;;;;9.80;2.80;;;;;;;;;;5076107;28;20209;-78
2023/10/04 12:48:20;;;;;;;8.83;3.23;;;;;;;;;;5075093;28;20454;-79
2023/10/04 12:50:46;;;;;;;6.97;2.53;;;;;;;;;;5056982;28;20419;-77
2023/10/04 12:53:14;;;;;;;7.77;2.87;;;;;;;;;;5057138;28;20419;-84
2023/10/04 12:55:40;;;;;;;6.77;3.27;;;;;;;;;;5057322;28;20431;-79
2023/10/04 12:58:06;;;;;;;11.27;4.00;;;;;;;;;;5074969;28;20471;-90
2023/10/04 13:00:33;;;;;;;8.27;3.30;;;;;;;;;;5075378;28;20169;-89
2023/10/04 13:03:00;;;;;;;8.37;3.13;;;;;;;;;;5075583;28;20971;-77
2023/10/04 13:05:27;;;;;;;7.90;3.60;;;;;;;;;;5070286;28;20467;-78
2023/10/04 13:07:53;;;;;;;7.77;2.97;;;;;;;;;;5042862;28;20960;-90
2023/10/04 13:10:19;;;;;;;8.03;3.03;;;;;;;;;;5034543;28;20436;-78
2023/10/04 13:12:45;;;;;;;11.80;4.40;;;;;;;;;;5038400;28;20435;-86
2023/10/04 13:15:12;;;;;;;7.17;2.83;;;;;;;;;;5054480;28;20419;-86
2023/10/04 13:17:39;;;;;;;7.43;3.30;;;;;;;;;;5055355;28;20761;-85
2023/10/04 13:20:17;;;;;;;6.90;3.07;;;;;;;;;;5054982;28;20454;-78
2023/10/04 13:22:43;;;;;;;8.50;3.10;;;;;;;;;;5054890;28;20504;-79
2023/10/04 13:25:09;;;;;;;8.33;2.97;;;;;;;;;;5055133;28;20468;-79
2023/10/04 13:27:36;;;;;;;9.47;3.50;;;;;;;;;;5054750;28;20413;-82
2023/10/04 13:30:02;;;;;;;8.43;2.97;;;;;;;;;;5054412;28;20817;-78
2023/10/04 13:32:28;;;;;;;9.53;3.17;;;;;;;;;;5054819;28;20414;-77
2023/10/04 13:34:57;;;;;;;8.40;2.30;;;;;;;;;;5055151;28;20893;-92
2023/10/04 13:37:23;;;;;;;7.67;2.23;;;;;;;;;;5054758;28;20237;-78
2023/10/04 13:39:49;;;;;;;6.20;2.20;;;;;;;;;;5054596;28;20901;-80
2023/10/04 13:42:16;;;;;;;8.30;2.67;;;;;;;;;;5054701;28;20420;-87
2023/10/04 13:44:43;;;;;;;10.90;3.33;;;;;;;;;;5053826;28;20538;-78
2023/10/04 13:47:09;;;;;;;5.77;2.20;;;;;;;;;;5054401;28;20506;-77
2023/10/04 13:49:37;;;;;;;6.50;2.30;;;;;;;;;;5054877;28;20405;-77
2023/10/04 13:52:03;;;;;;;8.50;2.30;;;;;;;;;;5054502;28;20511;-89
2023/10/04 13:54:32;;;;;;;6.80;2.57;;;;;;;;;;5054626;28;20492;-78
2023/10/04 13:56:59;;;;;;;5.53;2.77;;;;;;;;;;5054343;28;20408;-78
2023/10/04 13:59:25;;;;;;;8.00;2.70;;;;;;;;;;5054152;28;20404;-79
2023/10/04 14:01:51;;;;;;;6.83;2.83;;;;;;;;;;5054346;28;20408;-87
2023/10/04 14:04:18;;;;;;;7.00;1.93;;;;;;;;;;5054579;28;20933;-79
2023/10/04 14:06:44;;;;;;;10.33;3.17;;;;;;;;;;5054255;28;20464;-76
2023/10/04 14:09:21;;;;;;;8.77;2.50;;;;;;;;;;5053998;28;20408;-85
2023/10/04 14:11:47;;;;;;;6.43;2.30;;;;;;;;;;5053748;28;20642;-80
2023/10/04 14:14:14;;;;;;;8.17;2.60;;;;;;;;;;5053861;28;20401;-87
2023/10/04 14:16:42;;;;;;;10.17;2.90;;;;;;;;;;5053745;28;20770;-82
2023/10/04 14:19:09;;;;;;;8.80;2.90;;;;;;;;;;5053294;28;20473;-86
2023/10/04 14:21:35;;;;;;;10.37;2.10;;;;;;;;;;5052589;28;20419;-77
2023/10/04 14:24:01;;;;;;;6.20;2.20;;;;;;;;;;5053259;28;20404;-79
2023/10/04 14:26:28;;;;;;;4.30;2.40;;;;;;;;;;5053319;28;20454;-83
2023/10/04 14:28:54;;;;;;;5.40;1.87;;;;;;;;;;5053359;28;20749;-78
2023/10/04 14:31:22;;;;;;;5.77;2.13;;;;;;;;;;5053478;28;20416;-80
2023/10/04 14:33:48;;;;;;;3.80;2.03;;;;;;;;;;5053760;28;20162;-77
2023/10/04 14:36:14;;;;;;;5.43;1.77;;;;;;;;;;5047057;28;20963;-78
2023/10/04 14:38:40;;;;;;;6.90;2.20;;;;;;;;;;5053579;28;20423;-78
2023/10/04 14:41:06;;;;;;;7.30;2.30;;;;;;;;;;5052894;28;20420;-79
2023/10/04 14:43:32;;;;;;;4.53;1.30;;;;;;;;;;5053298;28;20743;-89
2023/10/04 14:46:03;;;;;;;10.23;2.77;;;;;;;;;;5035641;28;20236;-78
2023/10/04 14:48:29;;;;;;;8.27;2.20;;;;;;;;;;5053348;28;20503;-80
2023/10/04 14:50:56;;;;;;;10.93;2.20;;;;;;;;;;5053812;28;20916;-79
2023/10/04 14:53:21;;;;;;;5.10;2.30;;;;;;;;;;5053542;28;20438;-77